Weather observations for the past three days for
Hill City, Hill City Municipal Airport
Metric (Imperial)
Date Time (cdt) Wind (kph) Vis. (km) Weather Sky Cond. Temperature (ºC) Relative Humidity Wind Chill (°C) Heat Index (°C) Pressure Precipitation (cm)
Air Dwpt 6 hour altimeter (cm) sea level (mb) 1 hr 3 hr 6 hr
Max. Min.
04 20:53 E 24 G 37 16.09 Fair CLR 17.2 7.2 52% 75.39 1003.9
04 19:53 E 30 8.05 A Few Clouds with Haze FEW002 20 8.9 49% 75.31 1002.8
04 18:53 E 17 G 30 16.09 Light Rain SCT080 OVC100 21.1 9.4 30 21.1 47% 75.29 1002.8
04 17:53 Vrbl 7 16.09 Mostly Cloudy FEW055 FEW080 BKN110 26.7 2.2 20% 26 75.21 1001.4
04 16:53 S 13 16.09 Fair CLR 28.3 1.1 17% 27 75.18 1000.7
04 15:53 SE 15 16.09 Fair CLR 29.4 1.1 16% 28 75.21 1000.9
04 14:53 Calm 16.09 Fair CLR 27.8 0.6 17% 27 75.26 1001.5
04 13:53 Vrbl 11 G 28 16.09 Fair CLR 28.3 0.6 17% 27 75.31 1001.9
04 12:53 Vrbl 6 16.09 Fair CLR 27.2 0.6 27.8 6.7 18% 26 75.36 1002.8
04 11:53 NE 11 16.09 Fair CLR 26.7 2.8 21% 26 75.36 1002.9
04 10:53 NE 9 16.09 Fair CLR 23.9 5.6 31% 25 75.39 1003.6
04 09:53 Vrbl 7 16.09 Fair CLR 21.1 5 35% 75.39 1003.6
04 07:53 N 24 16.09 Fair CLR 11.7 4.4 61% 75.41 1003.8
04 06:53 W 15 16.09 Fair CLR 6.7 2.8 13.9 5.6 76% 4 75.31 1002.8
04 05:53 W 7 16.09 Fair CLR 6.7 2.8 76% 6 75.31 1002.9
04 04:53 W 7 16.09 Fair CLR 7.8 3.3 73% 7 75.36 1003.1
04 03:53 Calm 16.09 Fair CLR 8.9 4.4 74% 75.41 1003.7
04 02:53 Calm 16.09 Fair CLR 11.7 5 64% 75.44 1004.0
04 01:53 NE 9 16.09 Fair CLR 13.3 4.4 55% 75.46 1004.4
04 00:53 Calm 16.09 Fair CLR 12.2 3.9 26.1 11.7 57% 75.49 1004.9
03 23:53 NE 15 16.09 Fair CLR 13.3 5 57% 75.54 1005.5
03 22:53 E 11 16.09 Fair CLR 12.8 3.9 55% 75.57 1006.1
03 21:53 E 7 16.09 Fair CLR 16.1 4.4 46% 75.59 1006.3
03 20:53 E 11 16.09 Fair CLR 18.9 3.9 37% 75.59 1006.4
03 19:53 E 17 16.09 Fair CLR 23.3 2.8 26% 75.59 1006.3
03 18:53 E 17 16.09 Fair CLR 25.6 1.1 27.8 25 20% 25 75.59 1006.2
03 17:53 E 13 16.09 Fair CLR 26.1 0.6 19% 26 75.59 1006.3
03 16:53 E 15 16.09 Fair CLR 27.2 0.6 18% 26 75.64 1006.7
03 15:53 E 17 16.09 Fair CLR 27.8 0.6 17% 27 75.72 1007.9
03 14:53 NE 13 16.09 Fair CLR 27.2 -1.7 15% 26 75.79 1008.8
03 13:53 N 9 16.09 Fair CLR 25.6 -1.7 16% 25 75.87 1010.1
03 12:53 Vrbl 7 16.09 Fair CLR 26.1 -1.7 26.1 10.6 16% 25 75.95 1011.0
03 11:53 Vrbl 11 16.09 Fair CLR 25.6 -1.1 17% 25 76.02 1011.9
03 10:53 N 17 16.09 Fair CLR 23.3 0 21% 76.05 1012.2
03 09:53 W 7 16.09 Fair CLR 18.9 1.1 30% 76.07 1013.0
03 08:53 NW 17 16.09 Fair CLR 13.9 2.2 45% 76.1 1013.5
03 07:53 W 19 16.09 Fair CLR 11.7 1.7 51% 76.02 1012.3
03 06:53 W 19 16.09 Fair CLR 11.1 2.2 12.8 10 55% 76 1012.0
03 05:53 W 13 16.09 Fair CLR 11.7 2.2 52% 76 1012.0
03 04:53 W 20 16.09 Fair CLR 11.7 1.7 51% 76.05 1012.7
03 03:53 W 13 16.09 Fair CLR 11.1 1.7 53% 76.07 1013.2
03 02:53 SW 17 16.09 Fair CLR 11.7 1.7 51% 76.1 1013.6
03 01:53 W 13 16.09 Fair CLR 11.1 1.7 53% 76.15 1014.2
03 00:53 SW 11 16.09 Fair CLR 12.8 1.7 22.2 12.8 47% 76.15 1014.4
02 23:53 Calm 16.09 Fair CLR 13.3 1.7 46% 76.17 1014.8
02 22:53 S 15 16.09 Fair CLR 15 1.7 41% 76.2 1015.2
02 21:53 S 11 16.09 Fair CLR 13.9 1.7 44% 76.2 1015.5
02 20:53 S 11 16.09 Fair CLR 16.7 0.6 34% 76.2 1015.3
02 19:53 SW 11 16.09 Fair CLR 21.1 -0.6 23% 76.2 1015.2
02 18:53 W 13 16.09 Fair CLR 22.2 -1.1 22.8 16.7 21% 76.25 1016.1
02 17:53 W 19 G 30 16.09 Fair CLR 22.2 -1.1 21% 76.28 1016.6
02 16:53 SW 19 G 33 16.09 Fair CLR 21.7 -0.6 23% 76.35 1017.4
02 15:53 W 15 G 30 16.09 Fair CLR 21.1 -0.6 23% 76.45 1018.8
02 14:53 Calm 16.09 Fair CLR 20 -0.6 25% 76.5 1019.7
02 13:53 SW 13 G 28 16.09 Fair CLR 18.9 -0.6 27% 76.56 1020.5
02 12:53 Vrbl 7 16.09 Fair CLR 16.7 -0.6 17.2 0 31% 76.63 1021.6
02 11:53 S 9 16.09 Fair CLR 15.6 -1.1 32% 76.71 1022.4
02 10:53 SW 9 16.09 Fair CLR 13.9 -1.7 34% 76.73 1022.8
02 09:53 S 13 16.09 Fair CLR 11.1 -1.1 43% 76.76 1023.4
02 08:53 S 6 16.09 Fair CLR 7.2 -0.6 58% 76.76 1023.6
02 07:53 Calm 16.09 Fair CLR 4.4 0.6 77% 76.73 1023.3
02 06:53 Calm 16.09 Fair CLR 0 -1.7 5.6 0 88% 76.71 1023.2
02 05:53 Calm 16.09 Fair CLR 1.7 -1.1 82% 76.68 1022.6
02 04:53 Vrbl 6 16.09 Fair CLR 3.9 0 76% 76.68 1022.2
02 03:53 Calm 16.09 Mostly Cloudy BKN110 2.8 0.6 86% 76.66 1021.8
02 02:53 N 9 16.09 Fair CLR 2.8 0 82% 1 76.63 1021.4
02 01:53 Calm 16.09 A Few Clouds FEW110 3.9 0.6 79% 76.61 1021.0
02 00:53 Calm 16.09 Fair CLR 5 1.1 16.1 5 76% 76.58 1020.8
01 23:53 NE 6 16.09 Partly Cloudy SCT110 7.2 1.7 68% 76.58 1020.5
01 22:53 Calm 16.09 Overcast OVC110 8.9 3.9 71% 76.56 1020.4
01 21:53 E 7 16.09 Mostly Cloudy BKN100 BKN110 10 2.8 61% 9 76.5 1019.7
Date Time (cdt) Wind (kph) Vis. (km) Weather Sky Cond. Air Dwpt Max. Min. Relative Humidity Wind Chill (°C) Heat Index (°C) altimeter (cm) sea level (mb) 1 hr 3 hr 6 hr
6 hour
Temperature (ºC) Pressure Precipitation (cm)